Time;durP1;ratioP1;P1;durP2;ratioP2;P2;SDS_P1;SDS_P2;PMS_P1;PMS_P2;Temp;Humidity;BMP_temperature;BMP_pressure;BME280_temperature;BME280_humidity;BME280_pressure;Samples;Min_cycle;Max_cycle;Signal;HPM_P1;HPM_P2
2022/08/12 00:44:57;;;;;;;;;;;20.10;99.90;;;;;;5067137;28;19909;-73
2022/08/12 00:47:23;;;;;;;;;;;20.10;99.90;;;;;;5068801;28;20214;-73
2022/08/12 00:49:49;;;;;;;;;;;20.00;99.90;;;;;;5072083;28;19917;-73
2022/08/12 00:52:15;;;;;;;;;;;20.00;99.90;;;;;;5074108;28;19916;-73
2022/08/12 00:54:55;;;;;;;;;;;19.90;99.90;;;;;;5073464;28;19966;-74
2022/08/12 00:57:23;;;;;;;;;;;19.80;99.90;;;;;;5071094;28;20312;-74
2022/08/12 00:59:55;;;;;;;;;;;19.60;99.90;;;;;;5072741;28;19913;-73
2022/08/12 01:02:29;;;;;;;;;;;19.60;99.90;;;;;;5073153;28;21191;-73
2022/08/12 01:13:13;;;;;;;;;;;19.20;99.90;;;;;;5073125;28;19918;-73
2022/08/12 01:15:39;;;;;;;;;;;19.00;99.90;;;;;;5072534;28;19951;-73
2022/08/12 01:18:05;;;;;;;;;;;19.00;99.90;;;;;;5071662;28;20075;-72
2022/08/12 01:20:37;;;;;;;;;;;19.00;99.90;;;;;;5073126;28;20027;-73
2022/08/12 01:23:23;;;;;;;;;;;18.90;99.90;;;;;;5072677;28;19919;-73
2022/08/12 01:25:52;;;;;;;;;;;19.00;99.90;;;;;;5073036;28;19912;-73
2022/08/12 01:28:18;;;;;;;;;;;18.90;99.90;;;;;;5071820;28;20299;-73
2022/08/12 01:30:47;;;;;;;;;;;18.80;99.90;;;;;;5064223;28;19936;-73
2022/08/12 01:33:14;;;;;;;;;;;18.80;99.90;;;;;;5067418;28;20400;-73
2022/08/12 01:35:43;;;;;;;;;;;18.80;99.90;;;;;;5072150;28;19959;-73
2022/08/12 01:38:10;;;;;;;;;;;18.80;99.90;;;;;;5072918;28;19977;-73
2022/08/12 01:40:38;;;;;;;;;;;18.70;99.90;;;;;;5071428;28;19920;-73
2022/08/12 01:43:08;;;;;;;;;;;18.70;99.90;;;;;;5072375;28;19952;-73
2022/08/12 01:45:37;;;;;;;;;;;18.70;99.90;;;;;;5067580;28;19913;-73
2022/08/12 01:48:11;;;;;;;;;;;18.70;99.90;;;;;;5071710;28;20007;-73
2022/08/12 01:50:55;;;;;;;;;;;18.70;99.90;;;;;;5071744;28;20014;-73
2022/08/12 01:53:23;;;;;;;;;;;18.60;99.90;;;;;;5065065;28;19920;-73
2022/08/12 01:55:49;;;;;;;;;;;18.60;99.90;;;;;;5070366;28;20210;-73
2022/08/12 01:58:21;;;;;;;;;;;18.60;99.90;;;;;;5072988;28;19996;-73
2022/08/12 02:00:51;;;;;;;;;;;18.60;99.90;;;;;;5069330;28;19927;-73
2022/08/12 02:03:26;;;;;;;;;;;18.60;99.90;;;;;;5066893;28;19917;-72
2022/08/12 02:11:37;;;;;;;;;;;18.50;99.90;;;;;;5073843;28;20231;-73
2022/08/12 02:14:04;;;;;;;;;;;18.60;99.90;;;;;;5071133;28;20278;-74
2022/08/12 02:16:38;;;;;;;;;;;18.50;99.90;;;;;;5072742;28;20001;-73
2022/08/12 02:19:16;;;;;;;;;;;18.50;99.90;;;;;;5069388;28;19939;-73
2022/08/12 02:21:47;;;;;;;;;;;18.40;99.90;;;;;;5075106;28;19917;-74
2022/08/12 02:24:14;;;;;;;;;;;18.40;99.90;;;;;;5076305;28;19966;-74
2022/08/12 02:26:42;;;;;;;;;;;18.30;99.90;;;;;;5073245;28;20365;-74
2022/08/12 02:29:08;;;;;;;;;;;18.40;99.90;;;;;;5097453;28;19970;-74
2022/08/12 02:31:33;;;;;;;;;;;18.50;99.90;;;;;;5070552;28;19924;-74
2022/08/12 02:34:00;;;;;;;;;;;18.60;99.90;;;;;;5071349;28;19967;-74
2022/08/12 02:36:26;;;;;;;;;;;18.60;99.90;;;;;;5074953;28;19920;-73
2022/08/12 02:38:53;;;;;;;;;;;18.50;99.90;;;;;;5075531;28;19913;-73
2022/08/12 02:41:20;;;;;;;;;;;18.40;99.90;;;;;;5076161;28;19924;-72
2022/08/12 02:43:54;;;;;;;;;;;18.40;99.90;;;;;;5075709;28;19916;-73
2022/08/12 02:46:22;;;;;;;;;;;18.30;99.90;;;;;;5071806;28;19916;-73
2022/08/12 02:48:47;;;;;;;;;;;18.20;99.90;;;;;;5075536;28;19916;-73
2022/08/12 02:51:18;;;;;;;;;;;18.20;99.90;;;;;;5075513;28;19959;-73
2022/08/12 02:53:44;;;;;;;;;;;18.10;99.90;;;;;;5073734;28;19912;-74
2022/08/12 02:56:11;;;;;;;;;;;18.00;99.90;;;;;;5072457;28;20015;-74
2022/08/12 02:58:37;;;;;;;;;;;18.00;99.90;;;;;;5071633;28;20366;-73
2022/08/12 03:01:04;;;;;;;;;;;18.00;99.90;;;;;;5075844;28;20003;-73
2022/08/12 03:03:31;;;;;;;;;;;18.10;99.90;;;;;;5071533;28;19982;-73
2022/08/12 03:05:58;;;;;;;;;;;18.20;99.90;;;;;;5070402;28;20251;-73
2022/08/12 03:08:28;;;;;;;;;;;18.30;99.90;;;;;;5075907;28;19962;-73
2022/08/12 03:10:56;;;;;;;;;;;18.30;99.90;;;;;;5074637;28;19946;-73
2022/08/12 03:13:24;;;;;;;;;;;18.30;99.90;;;;;;5065569;28;19917;-72
2022/08/12 03:15:52;;;;;;;;;;;18.20;99.90;;;;;;5075404;28;20223;-74
2022/08/12 03:18:21;;;;;;;;;;;18.10;99.90;;;;;;5064971;28;19961;-73
2022/08/12 03:20:47;;;;;;;;;;;18.00;99.90;;;;;;5074815;28;19948;-73
2022/08/12 03:23:14;;;;;;;;;;;17.90;99.90;;;;;;5069752;28;20330;-73
2022/08/12 03:25:41;;;;;;;;;;;17.80;99.90;;;;;;5074502;28;19924;-73
2022/08/12 03:28:08;;;;;;;;;;;17.70;99.90;;;;;;5074385;28;19916;-73
2022/08/12 03:30:35;;;;;;;;;;;17.50;99.90;;;;;;5072961;28;20292;-73
2022/08/12 03:33:01;;;;;;;;;;;17.40;99.90;;;;;;5075165;28;19913;-73
2022/08/12 03:35:29;;;;;;;;;;;17.40;99.90;;;;;;5069758;28;20425;-73
2022/08/12 03:37:57;;;;;;;;;;;17.20;99.90;;;;;;5073896;28;19912;-74
2022/08/12 04:02:23;;;;;;;;;;;17.00;99.90;;;;;;5074377;28;20350;-73
2022/08/12 04:04:49;;;;;;;;;;;17.10;99.90;;;;;;5073954;28;20054;-73
2022/08/12 04:07:15;;;;;;;;;;;17.10;99.90;;;;;;5073695;28;20003;-73
2022/08/12 04:09:42;;;;;;;;;;;17.10;99.90;;;;;;5075275;28;20250;-73
2022/08/12 04:14:52;;;;;;;;;;;16.90;99.90;;;;;;5062778;28;19915;-73
2022/08/12 04:17:18;;;;;;;;;;;16.90;99.90;;;;;;5072082;28;19924;-73
2022/08/12 04:19:47;;;;;;;;;;;16.80;99.90;;;;;;5074085;28;19917;-73
2022/08/12 04:22:13;;;;;;;;;;;16.70;99.90;;;;;;5073182;28;19919;-73
2022/08/12 04:24:39;;;;;;;;;;;16.60;99.90;;;;;;5074820;28;19912;-73
2022/08/12 04:27:07;;;;;;;;;;;16.60;99.90;;;;;;5074970;28;19912;-73
2022/08/12 04:29:33;;;;;;;;;;;16.60;99.90;;;;;;5072827;28;20323;-74
2022/08/12 04:31:58;;;;;;;;;;;16.50;99.90;;;;;;5072675;28;19916;-73
2022/08/12 04:34:24;;;;;;;;;;;16.50;99.90;;;;;;5072270;28;20011;-74
2022/08/12 04:36:52;;;;;;;;;;;16.50;99.90;;;;;;5073264;28;20267;-73
2022/08/12 04:39:20;;;;;;;;;;;16.50;99.90;;;;;;5067749;28;19912;-73
2022/08/12 04:41:45;;;;;;;;;;;16.50;99.90;;;;;;5104895;28;19934;-73
2022/08/12 04:44:11;;;;;;;;;;;16.60;99.90;;;;;;5074402;28;19999;-74
2022/08/12 04:46:36;;;;;;;;;;;16.70;99.90;;;;;;5073263;28;20299;-74
2022/08/12 04:49:02;;;;;;;;;;;16.80;99.90;;;;;;5074097;28;20366;-73
2022/08/12 04:51:28;;;;;;;;;;;16.80;99.90;;;;;;5073464;28;19909;-77
2022/08/12 04:53:54;;;;;;;;;;;16.90;99.90;;;;;;5074138;28;19924;-73
2022/08/12 04:56:19;;;;;;;;;;;16.90;99.90;;;;;;5073491;28;19917;-73
2022/08/12 04:58:45;;;;;;;;;;;16.90;99.90;;;;;;5074201;28;19947;-73
2022/08/12 05:01:12;;;;;;;;;;;16.90;99.90;;;;;;5074043;28;19928;-73
2022/08/12 05:03:37;;;;;;;;;;;17.00;99.90;;;;;;5070813;28;19916;-73
2022/08/12 05:06:06;;;;;;;;;;;17.00;99.90;;;;;;5074004;28;19916;-73
2022/08/12 05:08:32;;;;;;;;;;;17.10;99.90;;;;;;5071432;28;19966;-73
2022/08/12 05:10:58;;;;;;;;;;;17.20;99.90;;;;;;5074029;28;19916;-73
2022/08/12 05:13:28;;;;;;;;;;;17.20;99.90;;;;;;5073533;28;20277;-74
2022/08/12 05:15:54;;;;;;;;;;;17.30;99.90;;;;;;5106266;28;19920;-73
2022/08/12 05:18:20;;;;;;;;;;;17.40;99.90;;;;;;5072049;28;20007;-74
2022/08/12 05:20:47;;;;;;;;;;;17.40;99.90;;;;;;5071150;28;19956;-73
2022/08/12 05:23:13;;;;;;;;;;;17.50;99.90;;;;;;5067465;28;19919;-74
2022/08/12 05:25:41;;;;;;;;;;;17.50;99.90;;;;;;5089413;28;19913;-73
2022/08/12 05:28:07;;;;;;;;;;;17.60;99.90;;;;;;5098470;28;19913;-73
2022/08/12 05:30:33;;;;;;;;;;;17.60;99.90;;;;;;5072906;28;19909;-74
2022/08/12 05:33:04;;;;;;;;;;;17.70;99.90;;;;;;5072864;28;19916;-73
2022/08/12 05:35:30;;;;;;;;;;;17.80;99.90;;;;;;5074050;28;19913;-73
2022/08/12 05:40:40;;;;;;;;;;;18.00;99.90;;;;;;5071518;28;19966;-74
2022/08/12 05:43:06;;;;;;;;;;;18.00;99.90;;;;;;5072282;28;19916;-73
2022/08/12 05:45:32;;;;;;;;;;;18.00;99.90;;;;;;5072048;28;20375;-73
2022/08/12 05:47:58;;;;;;;;;;;18.00;99.90;;;;;;5064051;28;19966;-74
2022/08/12 05:50:24;;;;;;;;;;;18.10;99.90;;;;;;5070757;28;19916;-74
2022/08/12 05:52:51;;;;;;;;;;;18.30;99.90;;;;;;5088982;28;19958;-73
2022/08/12 05:55:18;;;;;;;;;;;18.40;99.90;;;;;;5075572;28;19920;-73
2022/08/12 05:57:47;;;;;;;;;;;18.40;99.90;;;;;;5060500;28;19913;-75
2022/08/12 06:00:15;;;;;;;;;;;18.60;99.90;;;;;;5068163;28;19925;-75
2022/08/12 06:02:41;;;;;;;;;;;18.70;99.90;;;;;;5065152;28;19916;-75
2022/08/12 06:05:09;;;;;;;;;;;18.80;99.90;;;;;;5074575;28;20275;-73
2022/08/12 06:07:46;;;;;;;;;;;18.90;99.90;;;;;;5071206;28;19995;-73
2022/08/12 06:10:12;;;;;;;;;;;19.00;99.90;;;;;;5066005;28;19916;-75
2022/08/12 06:12:38;;;;;;;;;;;19.10;99.90;;;;;;5075590;28;19972;-73
2022/08/12 06:15:03;;;;;;;;;;;19.20;99.90;;;;;;5072508;28;19913;-74
2022/08/12 06:17:29;;;;;;;;;;;19.30;99.90;;;;;;5073177;28;19916;-73
2022/08/12 06:19:57;;;;;;;;;;;19.40;99.90;;;;;;5057441;28;19948;-74
2022/08/12 06:22:23;;;;;;;;;;;19.50;99.90;;;;;;5073928;28;19912;-73
2022/08/12 06:24:48;;;;;;;;;;;19.60;99.90;;;;;;5073290;28;19940;-73
2022/08/12 06:27:16;;;;;;;;;;;19.50;99.90;;;;;;5073845;28;19959;-75
2022/08/12 06:29:41;;;;;;;;;;;19.60;99.90;;;;;;5074493;28;20215;-74
2022/08/12 06:32:07;;;;;;;;;;;19.70;99.90;;;;;;5074928;28;20053;-74
2022/08/12 06:34:33;;;;;;;;;;;19.80;99.90;;;;;;5074806;28;19935;-74
2022/08/12 06:36:58;;;;;;;;;;;19.90;99.90;;;;;;5074147;28;19971;-74
2022/08/12 06:39:24;;;;;;;;;;;20.00;99.90;;;;;;5072916;28;19920;-75
2022/08/12 06:44:34;;;;;;;;;;;20.10;99.90;;;;;;5074448;28;19986;-74
2022/08/12 06:46:59;;;;;;;;;;;20.10;99.90;;;;;;5074471;28;20326;-73
2022/08/12 06:49:27;;;;;;;;;;;20.20;99.90;;;;;;5073682;28;19916;-74
2022/08/12 06:51:54;;;;;;;;;;;20.20;99.90;;;;;;5073381;28;20255;-75
2022/08/12 06:54:20;;;;;;;;;;;20.20;99.90;;;;;;5074274;28;19931;-73
2022/08/12 06:56:46;;;;;;;;;;;20.30;99.90;;;;;;5073482;28;20279;-75
2022/08/12 06:59:13;;;;;;;;;;;20.30;99.90;;;;;;5074724;28;19920;-76
2022/08/12 07:01:39;;;;;;;;;;;20.40;99.90;;;;;;5073258;28;20133;-75
2022/08/12 07:04:04;;;;;;;;;;;20.50;99.90;;;;;;5073875;28;20310;-75
2022/08/12 07:06:30;;;;;;;;;;;20.50;99.90;;;;;;5073086;28;19920;-75
2022/08/12 07:08:55;;;;;;;;;;;20.60;99.90;;;;;;5073688;28;19923;-74
2022/08/12 07:11:22;;;;;;;;;;;20.60;99.90;;;;;;5072385;28;19959;-74
2022/08/12 07:13:49;;;;;;;;;;;20.70;99.90;;;;;;5070428;28;19946;-75
2022/08/12 07:16:16;;;;;;;;;;;20.70;99.90;;;;;;5072627;28;19970;-73
2022/08/12 07:18:43;;;;;;;;;;;20.80;99.90;;;;;;5074878;28;19923;-73
2022/08/12 07:21:09;;;;;;;;;;;20.90;99.90;;;;;;5071016;28;19916;-73
2022/08/12 07:23:35;;;;;;;;;;;21.00;99.90;;;;;;5073738;28;19917;-74
2022/08/12 07:26:02;;;;;;;;;;;21.10;99.90;;;;;;5073484;28;19916;-74
2022/08/12 07:28:29;;;;;;;;;;;21.20;99.90;;;;;;5071913;28;20338;-74
2022/08/12 07:30:55;;;;;;;;;;;21.40;99.90;;;;;;5071089;28;20261;-73
2022/08/12 07:33:23;;;;;;;;;;;21.50;99.90;;;;;;5073505;28;19962;-74
2022/08/12 07:35:49;;;;;;;;;;;21.80;99.90;;;;;;5073332;28;19917;-74
2022/08/12 07:38:23;;;;;;;;;;;22.00;99.90;;;;;;5071828;28;19917;-74
2022/08/12 07:40:53;;;;;;;;;;;22.20;99.90;;;;;;5071892;28;19924;-75
2022/08/12 07:43:18;;;;;;;;;;;22.50;99.90;;;;;;5073735;28;19958;-74
2022/08/12 07:45:44;;;;;;;;;;;22.60;99.90;;;;;;5073316;28;19913;-74
2022/08/12 07:48:10;;;;;;;;;;;22.90;99.90;;;;;;5075174;28;20019;-74
2022/08/12 07:50:35;;;;;;;;;;;23.20;99.90;;;;;;5073807;28;19920;-75
2022/08/12 07:53:01;;;;;;;;;;;23.30;99.90;;;;;;5075131;28;19917;-74
2022/08/12 07:55:27;;;;;;;;;;;23.50;99.90;;;;;;5073789;28;20050;-73
2022/08/12 07:57:57;;;;;;;;;;;23.60;99.90;;;;;;5072994;28;19955;-74
2022/08/12 08:00:23;;;;;;;;;;;23.90;99.90;;;;;;5072728;28;19924;-74
2022/08/12 08:02:53;;;;;;;;;;;24.00;99.90;;;;;;5075046;28;20040;-75
2022/08/12 08:05:23;;;;;;;;;;;24.10;99.90;;;;;;5074920;28;19908;-73
2022/08/12 08:07:49;;;;;;;;;;;24.20;99.90;;;;;;5073735;28;19912;-74
2022/08/12 08:10:15;;;;;;;;;;;24.40;99.90;;;;;;5068925;28;19919;-74
2022/08/12 08:12:53;;;;;;;;;;;24.50;99.90;;;;;;5074984;28;19916;-75
2022/08/12 08:15:23;;;;;;;;;;;24.70;99.90;;;;;;5068842;28;19915;-75
2022/08/12 08:17:56;;;;;;;;;;;24.70;99.90;;;;;;5102428;28;19916;-74
2022/08/12 08:20:25;;;;;;;;;;;24.80;99.90;;;;;;5070919;28;19921;-74
2022/08/12 08:22:50;;;;;;;;;;;25.10;99.90;;;;;;5070139;28;20003;-74
2022/08/12 08:25:17;;;;;;;;;;;25.20;99.90;;;;;;5069796;28;20031;-74
2022/08/12 08:27:44;;;;;;;;;;;25.40;99.90;;;;;;5072305;28;20259;-75
2022/08/12 08:30:10;;;;;;;;;;;25.60;99.90;;;;;;5072921;28;19920;-75
2022/08/12 08:32:36;;;;;;;;;;;25.60;99.90;;;;;;5070597;28;19946;-75
2022/08/12 08:35:01;;;;;;;;;;;25.60;99.90;;;;;;5066354;28;19925;-74
2022/08/12 08:37:27;;;;;;;;;;;25.80;99.90;;;;;;5073693;28;19909;-75
2022/08/12 08:39:53;;;;;;;;;;;25.90;99.90;;;;;;5068154;28;19940;-74
2022/08/12 08:45:14;;;;;;;;;;;26.30;99.90;;;;;;5030249;28;20271;-74
2022/08/12 08:47:46;;;;;;;;;;;26.40;99.90;;;;;;5013672;28;20028;-77
2022/08/12 08:50:15;;;;;;;;;;;26.50;99.50;;;;;;5026837;28;19924;-74
2022/08/12 08:52:41;;;;;;;;;;;26.60;99.70;;;;;;5030317;28;20022;-75
2022/08/12 08:55:08;;;;;;;;;;;26.80;99.10;;;;;;5029787;28;20343;-76
2022/08/12 08:57:33;;;;;;;;;;;26.70;98.60;;;;;;5030121;28;19913;-75
2022/08/12 09:00:00;;;;;;;;;;;26.60;98.70;;;;;;5029787;28;19913;-74
2022/08/12 09:02:26;;;;;;;;;;;26.50;99.20;;;;;;5031185;28;19913;-75
2022/08/12 09:04:51;;;;;;;;;;;26.60;99.80;;;;;;5030262;28;19917;-74
2022/08/12 09:07:17;;;;;;;;;;;26.60;98.70;;;;;;5030276;28;19964;-73
2022/08/12 09:09:42;;;;;;;;;;;26.80;98.20;;;;;;5014836;28;19909;-75
2022/08/12 09:14:53;;;;;;;;;;;26.80;97.70;;;;;;5031962;28;20270;-74
2022/08/12 09:17:21;;;;;;;;;;;26.90;98.60;;;;;;5030278;28;19925;-74
2022/08/12 09:19:47;;;;;;;;;;;27.00;98.50;;;;;;5025554;28;19917;-74
2022/08/12 09:22:13;;;;;;;;;;;27.20;97.60;;;;;;5059677;28;20264;-75
2022/08/12 09:24:39;;;;;;;;;;;27.40;96.90;;;;;;5071354;28;19931;-74
2022/08/12 09:27:05;;;;;;;;;;;27.70;97.30;;;;;;5073235;28;20216;-75
2022/08/12 09:29:32;;;;;;;;;;;27.70;96.60;;;;;;5076034;28;19921;-74
2022/08/12 09:31:59;;;;;;;;;;;27.90;97.40;;;;;;5073435;28;20197;-73
2022/08/12 09:34:28;;;;;;;;;;;28.10;97.00;;;;;;5071285;28;19913;-74
2022/08/12 09:36:54;;;;;;;;;;;28.10;96.20;;;;;;5072651;28;19936;-74
2022/08/12 09:39:20;;;;;;;;;;;28.10;96.50;;;;;;5077103;28;20023;-74
2022/08/12 09:45:19;;;;;;;;;;;28.40;97.80;;;;;;5076127;28;19921;-74
2022/08/12 09:47:15;;;;;;;;;;;28.80;99.90;;;;;;5077183;28;20314;-73
2022/08/12 09:49:40;;;;;;;;;;;28.80;99.80;;;;;;5076621;28;19917;-74
2022/08/12 09:52:06;;;;;;;;;;;28.70;99.70;;;;;;5074442;28;19916;-73
2022/08/12 09:54:31;;;;;;;;;;;28.70;99.90;;;;;;5077094;28;19912;-73
2022/08/12 09:56:57;;;;;;;;;;;28.70;99.90;;;;;;5076125;28;20363;-73
2022/08/12 09:59:23;;;;;;;;;;;28.70;99.90;;;;;;5077186;28;19996;-75
2022/08/12 10:01:48;;;;;;;;;;;28.60;99.90;;;;;;5074175;28;19935;-74
2022/08/12 10:04:14;;;;;;;;;;;28.60;99.90;;;;;;5071747;28;19923;-73
2022/08/12 10:06:43;;;;;;;;;;;28.50;99.90;;;;;;5072164;28;19924;-75
2022/08/12 10:09:09;;;;;;;;;;;28.40;99.90;;;;;;5072191;28;19923;-74
2022/08/12 10:14:19;;;;;;;;;;;28.40;99.90;;;;;;5071504;28;19926;-74
2022/08/12 10:16:45;;;;;;;;;;;28.40;99.90;;;;;;5106046;28;19928;-73
2022/08/12 10:19:11;;;;;;;;;;;28.40;99.90;;;;;;5073477;28;19917;-73
2022/08/12 10:21:39;;;;;;;;;;;28.70;99.90;;;;;;5105401;28;19920;-74
2022/08/12 10:24:07;;;;;;;;;;;28.80;99.90;;;;;;5086558;28;19920;-73
2022/08/12 10:29:37;;;;;;;;;;;28.90;99.90;;;;;;5063979;28;19919;-74
2022/08/12 10:32:07;;;;;;;;;;;28.90;99.90;;;;;;5066539;28;19917;-74
2022/08/12 10:34:33;;;;;;;;;;;28.80;99.90;;;;;;5073802;28;19912;-74
2022/08/12 10:37:00;;;;;;;;;;;28.70;99.90;;;;;;5072504;28;20219;-73
2022/08/12 10:39:26;;;;;;;;;;;28.70;99.90;;;;;;5073017;28;20252;-74
2022/08/12 10:44:36;;;;;;;;;;;28.70;99.90;;;;;;5062728;28;19971;-73
2022/08/12 10:47:03;;;;;;;;;;;28.80;99.90;;;;;;5070264;28;20266;-74
2022/08/12 10:49:33;;;;;;;;;;;28.80;99.90;;;;;;5072247;28;19955;-75
2022/08/12 10:52:02;;;;;;;;;;;28.80;99.90;;;;;;5071381;28;19916;-75
2022/08/12 10:54:28;;;;;;;;;;;28.70;99.90;;;;;;5073473;28;20007;-74
2022/08/12 10:56:56;;;;;;;;;;;28.70;99.90;;;;;;5055395;28;20003;-74
2022/08/12 10:59:23;;;;;;;;;;;29.00;99.90;;;;;;5070234;28;20323;-74
2022/08/12 11:01:49;;;;;;;;;;;29.10;99.90;;;;;;5073027;28;20315;-74
2022/08/12 11:04:15;;;;;;;;;;;29.10;99.90;;;;;;5067674;28;19939;-74
2022/08/12 11:06:49;;;;;;;;;;;29.20;99.90;;;;;;5062803;28;19917;-74
2022/08/12 11:09:16;;;;;;;;;;;29.20;99.90;;;;;;5055397;28;19919;-73
2022/08/12 11:11:48;;;;;;;;;;;29.20;99.90;;;;;;5069398;28;20270;-74
2022/08/12 11:14:26;;;;;;;;;;;29.20;99.90;;;;;;5050490;28;19925;-74
2022/08/12 11:16:56;;;;;;;;;;;29.30;99.90;;;;;;5071133;28;19974;-73
2022/08/12 11:19:28;;;;;;;;;;;29.30;99.90;;;;;;5069129;28;20265;-75
2022/08/12 11:21:54;;;;;;;;;;;29.30;99.90;;;;;;5070391;28;19930;-74
2022/08/12 11:24:21;;;;;;;;;;;29.40;99.90;;;;;;5070443;28;19971;-75
2022/08/12 11:26:48;;;;;;;;;;;29.40;99.90;;;;;;5070419;28;19920;-73
2022/08/12 11:29:17;;;;;;;;;;;29.30;99.90;;;;;;5070075;28;20232;-74
2022/08/12 11:31:42;;;;;;;;;;;29.30;99.90;;;;;;5069340;28;19970;-75
2022/08/12 11:34:08;;;;;;;;;;;29.40;99.90;;;;;;5069524;28;20029;-73
2022/08/12 11:36:33;;;;;;;;;;;29.60;99.90;;;;;;5068909;28;20362;-74
2022/08/12 11:38:59;;;;;;;;;;;29.80;99.90;;;;;;5068688;28;19916;-76
2022/08/12 11:41:25;;;;;;;;;;;30.00;99.90;;;;;;5069043;28;19934;-75
2022/08/12 11:43:50;;;;;;;;;;;30.00;99.90;;;;;;5070478;28;19920;-76
2022/08/12 11:46:19;;;;;;;;;;;30.00;99.90;;;;;;5066396;28;20299;-74
2022/08/12 11:48:45;;;;;;;;;;;30.10;99.80;;;;;;5069957;28;20003;-75
2022/08/12 11:51:10;;;;;;;;;;;30.10;98.70;;;;;;5066140;28;20022;-76
2022/08/12 11:53:36;;;;;;;;;;;30.10;99.70;;;;;;5065824;28;19916;-74
2022/08/12 11:56:03;;;;;;;;;;;29.90;98.80;;;;;;5068627;28;19916;-75
2022/08/12 11:58:29;;;;;;;;;;;29.90;98.70;;;;;;5069989;28;19926;-73
2022/08/12 12:00:54;;;;;;;;;;;30.00;98.00;;;;;;5068532;28;20525;-73
2022/08/12 12:03:20;;;;;;;;;;;30.00;99.30;;;;;;5068402;28;19927;-74
2022/08/12 12:05:45;;;;;;;;;;;30.00;99.60;;;;;;5066613;28;19916;-75
2022/08/12 12:08:24;;;;;;;;;;;30.00;98.20;;;;;;5068758;28;20310;-75
2022/08/12 12:10:50;;;;;;;;;;;30.10;96.90;;;;;;5068660;28;20007;-75
2022/08/12 12:13:16;;;;;;;;;;;30.10;98.00;;;;;;5068874;28;19923;-76
2022/08/12 12:15:42;;;;;;;;;;;30.10;96.90;;;;;;5067355;28;19950;-75
2022/08/12 12:18:20;;;;;;;;;;;30.20;96.60;;;;;;5068838;28;19940;-75
2022/08/12 12:20:46;;;;;;;;;;;30.20;95.60;;;;;;5069398;28;19942;-74
2022/08/12 12:23:12;;;;;;;;;;;30.10;94.30;;;;;;5068883;28;20553;-76
2022/08/12 12:25:37;;;;;;;;;;;30.10;95.50;;;;;;5069330;28;19917;-74
2022/08/12 12:28:03;;;;;;;;;;;30.00;95.70;;;;;;5068328;28;20188;-74
2022/08/12 12:30:29;;;;;;;;;;;29.90;95.50;;;;;;5068007;28;19924;-74
2022/08/12 12:32:55;;;;;;;;;;;30.20;97.70;;;;;;5069626;28;20323;-74
2022/08/12 12:35:20;;;;;;;;;;;30.30;97.60;;;;;;5066213;28;20018;-74
2022/08/12 12:37:50;;;;;;;;;;;30.40;98.00;;;;;;5068116;28;20058;-75
2022/08/12 12:40:16;;;;;;;;;;;30.20;95.30;;;;;;5068048;28;19916;-75
2022/08/12 12:42:41;;;;;;;;;;;30.00;94.40;;;;;;5068133;28;19943;-74
2022/08/12 12:45:07;;;;;;;;;;;29.90;96.20;;;;;;5067617;28;19981;-75
2022/08/12 12:47:33;;;;;;;;;;;29.80;95.40;;;;;;5067468;28;19962;-74
2022/08/12 12:49:58;;;;;;;;;;;29.80;95.80;;;;;;5069231;28;20271;-73
2022/08/12 12:52:24;;;;;;;;;;;29.80;95.60;;;;;;5066338;28;19917;-76
2022/08/12 12:54:54;;;;;;;;;;;29.70;95.30;;;;;;5065160;28;19924;-75
2022/08/12 12:57:19;;;;;;;;;;;29.60;96.50;;;;;;5064642;28;20292;-74
2022/08/12 13:00:13;;;;;;;;;;;29.60;95.70;;;;;;5059327;28;19917;-74
2022/08/12 13:02:30;;;;;;;;;;;29.60;94.70;;;;;;5078638;28;19935;-75
2022/08/12 13:04:58;;;;;;;;;;;29.70;96.30;;;;;;5068987;28;20220;-75
2022/08/12 13:07:25;;;;;;;;;;;29.80;95.30;;;;;;5070020;28;19912;-75
2022/08/12 13:09:51;;;;;;;;;;;29.80;94.50;;;;;;5059176;28;19920;-73
2022/08/12 13:12:16;;;;;;;;;;;29.80;95.50;;;;;;5066387;28;19978;-74
2022/08/12 13:14:42;;;;;;;;;;;29.80;98.00;;;;;;5085983;28;19917;-75
2022/08/12 13:17:10;;;;;;;;;;;29.70;96.60;;;;;;5065782;28;20007;-75
2022/08/12 13:19:37;;;;;;;;;;;29.80;95.70;;;;;;5063985;28;19916;-74
2022/08/12 13:22:16;;;;;;;;;;;29.80;96.00;;;;;;5067993;28;19917;-74
2022/08/12 13:24:42;;;;;;;;;;;29.70;95.70;;;;;;5068831;28;19912;-75
2022/08/12 13:27:08;;;;;;;;;;;29.70;96.10;;;;;;5064217;28;20350;-74
2022/08/12 13:29:37;;;;;;;;;;;29.60;96.00;;;;;;5063153;28;19913;-73
2022/08/12 13:32:04;;;;;;;;;;;29.60;96.50;;;;;;5065729;28;19912;-76
2022/08/12 13:34:31;;;;;;;;;;;29.70;97.10;;;;;;5062036;28;19913;-75
2022/08/12 13:36:57;;;;;;;;;;;29.80;96.60;;;;;;5067666;28;19939;-75
2022/08/12 13:39:23;;;;;;;;;;;30.00;96.50;;;;;;5063441;28;19995;-73
2022/08/12 13:41:48;;;;;;;;;;;30.20;95.30;;;;;;5064036;28;20327;-74
2022/08/12 13:44:14;;;;;;;;;;;30.30;95.20;;;;;;5053662;28;19919;-75
2022/08/12 13:46:40;;;;;;;;;;;30.30;94.60;;;;;;5061287;28;20012;-76
2022/08/12 13:49:10;;;;;;;;;;;30.40;94.50;;;;;;5054043;28;19920;-75
2022/08/12 13:51:36;;;;;;;;;;;30.50;94.30;;;;;;5065483;28;20298;-74
2022/08/12 13:54:05;;;;;;;;;;;30.30;94.60;;;;;;5062326;28;19916;-73
2022/08/12 13:56:32;;;;;;;;;;;30.50;95.00;;;;;;5065822;28;19920;-75
2022/08/12 13:59:00;;;;;;;;;;;30.50;93.20;;;;;;5069555;28;20003;-75
2022/08/12 14:01:27;;;;;;;;;;;30.60;94.00;;;;;;5065575;28;20010;-74
2022/08/12 14:03:52;;;;;;;;;;;30.60;91.70;;;;;;5067798;28;19936;-73
2022/08/12 14:06:19;;;;;;;;;;;30.70;92.70;;;;;;5062100;28;19920;-74
2022/08/12 14:08:47;;;;;;;;;;;30.60;92.80;;;;;;5066081;28;19921;-73
2022/08/12 14:11:13;;;;;;;;;;;30.50;93.10;;;;;;5067698;28;19916;-74
2022/08/12 14:13:40;;;;;;;;;;;30.60;92.60;;;;;;5066926;28;19921;-75
2022/08/12 14:16:07;;;;;;;;;;;30.60;93.40;;;;;;5071585;28;19930;-74
2022/08/12 14:18:34;;;;;;;;;;;30.50;93.80;;;;;;5071222;28;19970;-74
2022/08/12 14:21:01;;;;;;;;;;;30.60;92.50;;;;;;5071734;28;20011;-73
2022/08/12 14:23:28;;;;;;;;;;;30.40;93.80;;;;;;5068872;28;19912;-73
2022/08/12 14:25:57;;;;;;;;;;;30.40;93.70;;;;;;5071069;28;19916;-75
2022/08/12 14:28:23;;;;;;;;;;;30.40;93.40;;;;;;5070889;28;19928;-74
2022/08/12 14:30:52;;;;;;;;;;;30.40;93.50;;;;;;5069154;28;19916;-74
2022/08/12 14:33:32;;;;;;;;;;;30.30;93.10;;;;;;5071445;28;19943;-75
2022/08/12 14:36:02;;;;;;;;;;;30.30;92.50;;;;;;5071860;28;20493;-75
2022/08/12 14:38:29;;;;;;;;;;;30.30;92.40;;;;;;5070058;28;19916;-75
2022/08/12 14:40:59;;;;;;;;;;;30.30;92.90;;;;;;5067831;28;19947;-74
2022/08/12 14:43:32;;;;;;;;;;;30.30;93.10;;;;;;5067814;28;20568;-75
2022/08/12 14:46:00;;;;;;;;;;;30.40;92.40;;;;;;5070875;28;19969;-74
2022/08/12 14:48:25;;;;;;;;;;;30.50;93.00;;;;;;5069513;28;19920;-73
2022/08/12 14:50:51;;;;;;;;;;;30.40;92.30;;;;;;5070899;28;20009;-75
2022/08/12 14:53:17;;;;;;;;;;;30.30;91.70;;;;;;5070621;28;19920;-74
2022/08/12 14:55:46;;;;;;;;;;;30.10;91.70;;;;;;5069650;28;19916;-74
2022/08/12 14:58:11;;;;;;;;;;;30.00;92.30;;;;;;5069776;28;19916;-74
2022/08/12 15:03:26;;;;;;;;;;;30.00;92.60;;;;;;5096946;28;20522;-73
2022/08/12 15:06:16;;;;;;;;;;;30.20;93.50;;;;;;5068806;28;20007;-74
2022/08/12 15:08:42;;;;;;;;;;;30.30;92.60;;;;;;5069847;28;19921;-75
2022/08/12 15:11:12;;;;;;;;;;;30.40;92.20;;;;;;5070850;28;19962;-74
2022/08/12 15:13:39;;;;;;;;;;;30.30;91.70;;;;;;5070484;28;20306;-74
2022/08/12 15:16:04;;;;;;;;;;;30.20;91.40;;;;;;5070457;28;19936;-74
2022/08/12 15:18:30;;;;;;;;;;;30.20;91.90;;;;;;5068467;28;19920;-74
2022/08/12 15:20:57;;;;;;;;;;;30.20;91.40;;;;;;5065722;28;19927;-74
2022/08/12 15:23:24;;;;;;;;;;;30.20;91.40;;;;;;5071256;28;19917;-74
2022/08/12 15:25:51;;;;;;;;;;;30.10;91.80;;;;;;5069070;28;19921;-75
2022/08/12 15:28:19;;;;;;;;;;;30.10;92.50;;;;;;5052920;28;19997;-73
2022/08/12 15:30:44;;;;;;;;;;;30.10;93.20;;;;;;5071637;28;19912;-73
2022/08/12 15:33:11;;;;;;;;;;;30.10;92.20;;;;;;5071073;28;19923;-79
2022/08/12 15:35:37;;;;;;;;;;;30.00;92.30;;;;;;5072209;28;19995;-72
2022/08/12 15:38:05;;;;;;;;;;;30.00;92.10;;;;;;5072997;28;20012;-75
2022/08/12 15:40:32;;;;;;;;;;;29.90;91.50;;;;;;5072115;28;20009;-74
2022/08/12 15:42:58;;;;;;;;;;;29.90;92.30;;;;;;5070284;28;19917;-74
2022/08/12 15:45:27;;;;;;;;;;;30.00;92.70;;;;;;5064695;28;20671;-74
2022/08/12 15:47:53;;;;;;;;;;;29.90;92.50;;;;;;5067854;28;19921;-74
2022/08/12 15:50:19;;;;;;;;;;;29.90;92.20;;;;;;5067777;28;19967;-74
2022/08/12 15:52:45;;;;;;;;;;;29.80;92.10;;;;;;5067526;28;19916;-74
2022/08/12 15:55:12;;;;;;;;;;;29.80;91.80;;;;;;5069442;28;19920;-73
2022/08/12 15:57:40;;;;;;;;;;;29.80;92.00;;;;;;5065637;28;19916;-76
2022/08/12 16:00:06;;;;;;;;;;;29.80;92.00;;;;;;5068977;28;20003;-74
2022/08/12 16:02:38;;;;;;;;;;;29.80;92.00;;;;;;5065454;28;20425;-74
2022/08/12 16:05:06;;;;;;;;;;;29.80;91.90;;;;;;5066322;28;20011;-76